sensor_id;sensor_type;location;lat;lon;timestamp;temperature;humidity
76168;DHT22;64927;48.214;16.378;2023-12-22T00:00:44;8.50;77.00
76168;DHT22;64927;48.214;16.378;2023-12-22T00:03:13;8.40;76.20
76168;DHT22;64927;48.214;16.378;2023-12-22T00:05:39;8.50;75.90
76168;DHT22;64927;48.214;16.378;2023-12-22T00:08:05;8.50;75.40
76168;DHT22;64927;48.214;16.378;2023-12-22T00:10:35;8.40;75.50
76168;DHT22;64927;48.214;16.378;2023-12-22T00:13:01;8.50;75.50
76168;DHT22;64927;48.214;16.378;2023-12-22T00:15:26;8.50;73.80
76168;DHT22;64927;48.214;16.378;2023-12-22T00:17:52;8.60;73.00
76168;DHT22;64927;48.214;16.378;2023-12-22T00:20:18;8.60;71.30
76168;DHT22;64927;48.214;16.378;2023-12-22T00:22:44;8.70;70.00
76168;DHT22;64927;48.214;16.378;2023-12-22T00:25:10;8.70;69.30
76168;DHT22;64927;48.214;16.378;2023-12-22T00:27:35;8.70;68.50
76168;DHT22;64927;48.214;16.378;2023-12-22T00:30:01;8.80;66.40
76168;DHT22;64927;48.214;16.378;2023-12-22T00:32:27;8.90;65.50
76168;DHT22;64927;48.214;16.378;2023-12-22T00:34:52;8.90;64.70
76168;DHT22;64927;48.214;16.378;2023-12-22T00:37:20;8.90;65.10
76168;DHT22;64927;48.214;16.378;2023-12-22T00:39:46;8.90;64.70
76168;DHT22;64927;48.214;16.378;2023-12-22T00:42:11;9.00;64.20
76168;DHT22;64927;48.214;16.378;2023-12-22T00:44:37;9.00;64.70
76168;DHT22;64927;48.214;16.378;2023-12-22T00:47:05;9.00;64.50
76168;DHT22;64927;48.214;16.378;2023-12-22T00:49:30;9.00;63.50
76168;DHT22;64927;48.214;16.378;2023-12-22T00:51:56;9.00;63.70
76168;DHT22;64927;48.214;16.378;2023-12-22T00:54:24;9.00;63.00
76168;DHT22;64927;48.214;16.378;2023-12-22T00:56:50;9.00;63.20
76168;DHT22;64927;48.214;16.378;2023-12-22T00:59:16;9.00;63.20
76168;DHT22;64927;48.214;16.378;2023-12-22T01:01:41;9.10;62.50
76168;DHT22;64927;48.214;16.378;2023-12-22T01:04:07;9.00;62.40
76168;DHT22;64927;48.214;16.378;2023-12-22T01:06:37;9.00;62.50
76168;DHT22;64927;48.214;16.378;2023-12-22T01:09:03;9.10;62.20
76168;DHT22;64927;48.214;16.378;2023-12-22T01:11:28;9.10;62.20
76168;DHT22;64927;48.214;16.378;2023-12-22T01:13:54;9.00;61.50
76168;DHT22;64927;48.214;16.378;2023-12-22T01:16:19;8.90;62.30
76168;DHT22;64927;48.214;16.378;2023-12-22T01:18:47;8.90;61.60
76168;DHT22;64927;48.214;16.378;2023-12-22T01:21:13;8.90;61.60
76168;DHT22;64927;48.214;16.378;2023-12-22T01:23:41;8.90;61.40
76168;DHT22;64927;48.214;16.378;2023-12-22T01:26:09;8.90;62.00
76168;DHT22;64927;48.214;16.378;2023-12-22T01:28:35;9.00;61.50
76168;DHT22;64927;48.214;16.378;2023-12-22T01:31:02;9.00;61.20
76168;DHT22;64927;48.214;16.378;2023-12-22T01:33:30;9.00;61.10
76168;DHT22;64927;48.214;16.378;2023-12-22T01:35:55;9.00;60.70
76168;DHT22;64927;48.214;16.378;2023-12-22T01:38:23;9.00;60.40
76168;DHT22;64927;48.214;16.378;2023-12-22T01:40:49;9.00;59.80
76168;DHT22;64927;48.214;16.378;2023-12-22T01:43:17;9.10;59.90
76168;DHT22;64927;48.214;16.378;2023-12-22T01:45:50;9.10;58.90
76168;DHT22;64927;48.214;16.378;2023-12-22T01:48:20;9.10;59.00
76168;DHT22;64927;48.214;16.378;2023-12-22T01:50:52;9.10;58.00
76168;DHT22;64927;48.214;16.378;2023-12-22T01:53:20;9.20;57.60
76168;DHT22;64927;48.214;16.378;2023-12-22T01:55:50;9.20;57.90
76168;DHT22;64927;48.214;16.378;2023-12-22T01:58:18;9.20;55.80
76168;DHT22;64927;48.214;16.378;2023-12-22T02:00:44;9.20;56.10
76168;DHT22;64927;48.214;16.378;2023-12-22T02:03:10;9.20;55.40
76168;DHT22;64927;48.214;16.378;2023-12-22T02:05:36;9.20;55.50
76168;DHT22;64927;48.214;16.378;2023-12-22T02:08:02;9.20;55.30
76168;DHT22;64927;48.214;16.378;2023-12-22T02:10:27;9.30;54.50
76168;DHT22;64927;48.214;16.378;2023-12-22T02:12:55;9.20;54.40
76168;DHT22;64927;48.214;16.378;2023-12-22T02:15:21;9.30;54.70
76168;DHT22;64927;48.214;16.378;2023-12-22T02:18:03;9.20;54.80
76168;DHT22;64927;48.214;16.378;2023-12-22T02:20:31;9.20;55.50
76168;DHT22;64927;48.214;16.378;2023-12-22T02:22:57;9.10;56.20
76168;DHT22;64927;48.214;16.378;2023-12-22T02:25:22;9.20;56.70
76168;DHT22;64927;48.214;16.378;2023-12-22T02:27:49;9.20;56.40
76168;DHT22;64927;48.214;16.378;2023-12-22T02:30:51;9.20;55.80
76168;DHT22;64927;48.214;16.378;2023-12-22T02:33:18;9.20;56.50
76168;DHT22;64927;48.214;16.378;2023-12-22T02:35:49;9.10;56.70
76168;DHT22;64927;48.214;16.378;2023-12-22T02:38:16;9.30;57.20
76168;DHT22;64927;48.214;16.378;2023-12-22T02:40:48;9.20;57.40
76168;DHT22;64927;48.214;16.378;2023-12-22T02:43:13;9.10;58.00
76168;DHT22;64927;48.214;16.378;2023-12-22T02:45:41;9.00;57.10
76168;DHT22;64927;48.214;16.378;2023-12-22T02:48:07;9.00;56.70
76168;DHT22;64927;48.214;16.378;2023-12-22T02:50:32;8.90;56.60
76168;DHT22;64927;48.214;16.378;2023-12-22T02:52:58;8.80;56.80
76168;DHT22;64927;48.214;16.378;2023-12-22T02:55:24;8.80;55.10
76168;DHT22;64927;48.214;16.378;2023-12-22T02:57:49;8.80;53.60
76168;DHT22;64927;48.214;16.378;2023-12-22T03:00:17;8.90;52.80
76168;DHT22;64927;48.214;16.378;2023-12-22T03:02:43;8.90;53.10
76168;DHT22;64927;48.214;16.378;2023-12-22T03:05:09;8.80;51.40
76168;DHT22;64927;48.214;16.378;2023-12-22T03:07:34;8.80;50.90
76168;DHT22;64927;48.214;16.378;2023-12-22T03:10:04;8.80;51.10
76168;DHT22;64927;48.214;16.378;2023-12-22T03:12:30;8.80;50.00
76168;DHT22;64927;48.214;16.378;2023-12-22T03:14:56;8.80;50.50
76168;DHT22;64927;48.214;16.378;2023-12-22T03:17:21;8.80;50.40
76168;DHT22;64927;48.214;16.378;2023-12-22T03:19:47;8.70;50.30
76168;DHT22;64927;48.214;16.378;2023-12-22T03:22:12;8.70;49.90
76168;DHT22;64927;48.214;16.378;2023-12-22T03:24:38;8.70;48.60
76168;DHT22;64927;48.214;16.378;2023-12-22T03:27:04;8.70;48.90
76168;DHT22;64927;48.214;16.378;2023-12-22T03:29:32;8.70;49.20
76168;DHT22;64927;48.214;16.378;2023-12-22T03:31:57;8.60;49.60
76168;DHT22;64927;48.214;16.378;2023-12-22T03:34:23;8.50;49.20
76168;DHT22;64927;48.214;16.378;2023-12-22T03:36:49;8.50;49.40
76168;DHT22;64927;48.214;16.378;2023-12-22T03:39:17;8.50;50.50
76168;DHT22;64927;48.214;16.378;2023-12-22T03:41:45;8.50;52.00
76168;DHT22;64927;48.214;16.378;2023-12-22T03:44:10;8.50;54.10
76168;DHT22;64927;48.214;16.378;2023-12-22T03:46:36;8.50;56.60
76168;DHT22;64927;48.214;16.378;2023-12-22T03:49:02;8.50;58.30
76168;DHT22;64927;48.214;16.378;2023-12-22T03:51:30;8.40;59.00
76168;DHT22;64927;48.214;16.378;2023-12-22T03:53:55;8.50;59.90
76168;DHT22;64927;48.214;16.378;2023-12-22T03:56:23;8.40;60.40
76168;DHT22;64927;48.214;16.378;2023-12-22T03:58:49;8.40;61.00
76168;DHT22;64927;48.214;16.378;2023-12-22T04:01:15;8.40;61.40
76168;DHT22;64927;48.214;16.378;2023-12-22T04:03:40;8.40;61.60
76168;DHT22;64927;48.214;16.378;2023-12-22T04:06:06;8.30;62.10
76168;DHT22;64927;48.214;16.378;2023-12-22T04:08:32;8.30;62.20
76168;DHT22;64927;48.214;16.378;2023-12-22T04:10:57;8.40;61.80
76168;DHT22;64927;48.214;16.378;2023-12-22T04:13:23;8.40;62.00
76168;DHT22;64927;48.214;16.378;2023-12-22T04:15:48;8.40;62.40
76168;DHT22;64927;48.214;16.378;2023-12-22T04:18:14;8.40;61.80
76168;DHT22;64927;48.214;16.378;2023-12-22T04:20:42;8.40;61.70
76168;DHT22;64927;48.214;16.378;2023-12-22T04:23:07;8.20;62.20
76168;DHT22;64927;48.214;16.378;2023-12-22T04:25:35;8.20;62.00
76168;DHT22;64927;48.214;16.378;2023-12-22T04:28:01;8.20;61.70
76168;DHT22;64927;48.214;16.378;2023-12-22T04:30:26;8.20;61.50
76168;DHT22;64927;48.214;16.378;2023-12-22T04:32:53;8.20;61.30
76168;DHT22;64927;48.214;16.378;2023-12-22T04:35:24;8.20;61.50
76168;DHT22;64927;48.214;16.378;2023-12-22T04:37:51;8.10;61.60
76168;DHT22;64927;48.214;16.378;2023-12-22T04:40:17;8.10;61.40
76168;DHT22;64927;48.214;16.378;2023-12-22T04:42:45;8.20;61.50
76168;DHT22;64927;48.214;16.378;2023-12-22T04:45:15;8.20;61.40
76168;DHT22;64927;48.214;16.378;2023-12-22T04:47:42;8.20;60.80
76168;DHT22;64927;48.214;16.378;2023-12-22T04:50:08;8.20;60.60
76168;DHT22;64927;48.214;16.378;2023-12-22T04:52:34;8.30;60.60
76168;DHT22;64927;48.214;16.378;2023-12-22T04:55:01;8.30;60.50
76168;DHT22;64927;48.214;16.378;2023-12-22T04:57:32;8.30;59.90
76168;DHT22;64927;48.214;16.378;2023-12-22T04:59:57;8.40;60.00
76168;DHT22;64927;48.214;16.378;2023-12-22T05:02:28;8.50;59.60
76168;DHT22;64927;48.214;16.378;2023-12-22T05:04:54;8.50;60.30
76168;DHT22;64927;48.214;16.378;2023-12-22T05:07:20;8.40;59.40
76168;DHT22;64927;48.214;16.378;2023-12-22T05:09:45;8.40;59.20
76168;DHT22;64927;48.214;16.378;2023-12-22T05:12:11;8.40;59.80
76168;DHT22;64927;48.214;16.378;2023-12-22T05:14:37;8.40;58.80
76168;DHT22;64927;48.214;16.378;2023-12-22T05:17:02;8.50;58.70
76168;DHT22;64927;48.214;16.378;2023-12-22T05:19:30;8.50;59.30
76168;DHT22;64927;48.214;16.378;2023-12-22T05:21:56;8.40;58.90
76168;DHT22;64927;48.214;16.378;2023-12-22T05:24:22;8.50;59.00
76168;DHT22;64927;48.214;16.378;2023-12-22T05:26:50;8.60;58.30
76168;DHT22;64927;48.214;16.378;2023-12-22T05:29:17;8.60;58.20
76168;DHT22;64927;48.214;16.378;2023-12-22T05:31:45;8.50;56.70
76168;DHT22;64927;48.214;16.378;2023-12-22T05:34:10;8.50;56.40
76168;DHT22;64927;48.214;16.378;2023-12-22T05:36:36;8.60;57.00
76168;DHT22;64927;48.214;16.378;2023-12-22T05:39:02;8.60;56.90
76168;DHT22;64927;48.214;16.378;2023-12-22T05:41:29;8.60;57.10
76168;DHT22;64927;48.214;16.378;2023-12-22T05:43:59;8.60;56.50
76168;DHT22;64927;48.214;16.378;2023-12-22T05:46:25;8.50;56.60
76168;DHT22;64927;48.214;16.378;2023-12-22T05:48:55;8.50;56.50
76168;DHT22;64927;48.214;16.378;2023-12-22T05:51:25;8.50;56.20
76168;DHT22;64927;48.214;16.378;2023-12-22T05:53:51;8.50;56.70
76168;DHT22;64927;48.214;16.378;2023-12-22T05:56:22;8.50;56.90
76168;DHT22;64927;48.214;16.378;2023-12-22T05:58:50;8.50;56.90
76168;DHT22;64927;48.214;16.378;2023-12-22T06:01:19;8.50;56.70
76168;DHT22;64927;48.214;16.378;2023-12-22T06:03:46;8.50;56.80
76168;DHT22;64927;48.214;16.378;2023-12-22T06:06:11;8.50;56.90
76168;DHT22;64927;48.214;16.378;2023-12-22T06:08:37;8.40;57.60
76168;DHT22;64927;48.214;16.378;2023-12-22T06:11:04;8.40;57.60
76168;DHT22;64927;48.214;16.378;2023-12-22T06:13:30;8.40;57.70
76168;DHT22;64927;48.214;16.378;2023-12-22T06:15:58;8.40;57.60
76168;DHT22;64927;48.214;16.378;2023-12-22T06:18:26;8.30;58.30
76168;DHT22;64927;48.214;16.378;2023-12-22T06:20:54;8.10;59.10
76168;DHT22;64927;48.214;16.378;2023-12-22T06:23:20;8.10;59.40
76168;DHT22;64927;48.214;16.378;2023-12-22T06:25:45;7.90;60.60
76168;DHT22;64927;48.214;16.378;2023-12-22T06:28:12;7.80;61.10
76168;DHT22;64927;48.214;16.378;2023-12-22T06:30:38;7.70;61.50
76168;DHT22;64927;48.214;16.378;2023-12-22T06:33:04;7.60;62.40
76168;DHT22;64927;48.214;16.378;2023-12-22T06:35:29;7.60;62.70
76168;DHT22;64927;48.214;16.378;2023-12-22T06:38:01;7.60;62.50
76168;DHT22;64927;48.214;16.378;2023-12-22T06:40:32;7.60;62.30
76168;DHT22;64927;48.214;16.378;2023-12-22T06:42:57;7.60;62.30
76168;DHT22;64927;48.214;16.378;2023-12-22T06:45:25;7.60;62.00
76168;DHT22;64927;48.214;16.378;2023-12-22T06:47:55;7.60;62.20
76168;DHT22;64927;48.214;16.378;2023-12-22T06:50:21;7.50;62.60
76168;DHT22;64927;48.214;16.378;2023-12-22T06:52:46;7.60;63.30
76168;DHT22;64927;48.214;16.378;2023-12-22T06:55:12;7.50;63.80
76168;DHT22;64927;48.214;16.378;2023-12-22T06:57:40;7.50;64.30
76168;DHT22;64927;48.214;16.378;2023-12-22T07:00:06;7.40;64.50
76168;DHT22;64927;48.214;16.378;2023-12-22T07:02:34;7.40;64.60
76168;DHT22;64927;48.214;16.378;2023-12-22T07:07:37;7.40;64.70
76168;DHT22;64927;48.214;16.378;2023-12-22T07:10:06;7.40;64.60
76168;DHT22;64927;48.214;16.378;2023-12-22T07:12:31;7.50;64.20
76168;DHT22;64927;48.214;16.378;2023-12-22T07:14:57;7.50;64.20
76168;DHT22;64927;48.214;16.378;2023-12-22T07:17:25;7.60;64.30
76168;DHT22;64927;48.214;16.378;2023-12-22T07:19:50;7.60;64.10
76168;DHT22;64927;48.214;16.378;2023-12-22T07:22:17;7.60;64.10
76168;DHT22;64927;48.214;16.378;2023-12-22T07:24:48;7.50;64.10
76168;DHT22;64927;48.214;16.378;2023-12-22T07:27:14;7.60;64.00
76168;DHT22;64927;48.214;16.378;2023-12-22T07:29:40;7.60;63.80
76168;DHT22;64927;48.214;16.378;2023-12-22T07:32:08;7.60;63.40
76168;DHT22;64927;48.214;16.378;2023-12-22T07:34:36;7.70;63.40
76168;DHT22;64927;48.214;16.378;2023-12-22T07:37:02;7.80;62.90
76168;DHT22;64927;48.214;16.378;2023-12-22T07:39:30;7.80;62.50
76168;DHT22;64927;48.214;16.378;2023-12-22T07:41:55;7.70;62.90
76168;DHT22;64927;48.214;16.378;2023-12-22T07:44:21;7.90;63.00
76168;DHT22;64927;48.214;16.378;2023-12-22T07:46:56;7.90;62.50
76168;DHT22;64927;48.214;16.378;2023-12-22T07:49:22;7.90;62.70
76168;DHT22;64927;48.214;16.378;2023-12-22T07:51:48;8.00;62.80
76168;DHT22;64927;48.214;16.378;2023-12-22T07:54:17;8.00;62.30
76168;DHT22;64927;48.214;16.378;2023-12-22T07:56:45;7.90;62.60
76168;DHT22;64927;48.214;16.378;2023-12-22T07:59:10;7.90;63.10
76168;DHT22;64927;48.214;16.378;2023-12-22T08:01:36;7.90;62.60
76168;DHT22;64927;48.214;16.378;2023-12-22T08:04:02;7.90;62.90
76168;DHT22;64927;48.214;16.378;2023-12-22T08:06:27;7.90;62.50
76168;DHT22;64927;48.214;16.378;2023-12-22T08:08:55;7.90;62.40
76168;DHT22;64927;48.214;16.378;2023-12-22T08:11:21;8.00;61.70
76168;DHT22;64927;48.214;16.378;2023-12-22T08:13:51;8.00;61.70
76168;DHT22;64927;48.214;16.378;2023-12-22T08:16:17;8.00;61.30
76168;DHT22;64927;48.214;16.378;2023-12-22T08:18:42;8.00;60.90
76168;DHT22;64927;48.214;16.378;2023-12-22T08:21:10;8.10;61.20
76168;DHT22;64927;48.214;16.378;2023-12-22T08:23:36;8.10;60.60
76168;DHT22;64927;48.214;16.378;2023-12-22T08:26:01;8.10;60.90
76168;DHT22;64927;48.214;16.378;2023-12-22T08:28:27;8.10;61.00
76168;DHT22;64927;48.214;16.378;2023-12-22T08:30:53;8.10;60.70
76168;DHT22;64927;48.214;16.378;2023-12-22T08:33:20;8.00;60.40
76168;DHT22;64927;48.214;16.378;2023-12-22T08:35:48;7.90;61.20
76168;DHT22;64927;48.214;16.378;2023-12-22T08:38:14;8.00;61.40
76168;DHT22;64927;48.214;16.378;2023-12-22T08:40:42;8.00;61.30
76168;DHT22;64927;48.214;16.378;2023-12-22T08:43:08;7.90;61.30
76168;DHT22;64927;48.214;16.378;2023-12-22T08:45:33;7.90;61.60
76168;DHT22;64927;48.214;16.378;2023-12-22T08:47:59;7.80;61.50
76168;DHT22;64927;48.214;16.378;2023-12-22T08:50:25;7.90;61.50
76168;DHT22;64927;48.214;16.378;2023-12-22T08:52:51;7.80;61.70
76168;DHT22;64927;48.214;16.378;2023-12-22T08:55:20;7.80;62.00
76168;DHT22;64927;48.214;16.378;2023-12-22T08:57:45;7.80;62.00
76168;DHT22;64927;48.214;16.378;2023-12-22T09:00:14;7.90;61.30
76168;DHT22;64927;48.214;16.378;2023-12-22T09:02:40;8.00;60.90
76168;DHT22;64927;48.214;16.378;2023-12-22T09:05:05;8.10;60.70
76168;DHT22;64927;48.214;16.378;2023-12-22T09:07:34;8.20;60.50
76168;DHT22;64927;48.214;16.378;2023-12-22T09:10:02;8.30;60.20
76168;DHT22;64927;48.214;16.378;2023-12-22T09:12:29;8.40;60.20
76168;DHT22;64927;48.214;16.378;2023-12-22T09:14:56;8.40;59.30
76168;DHT22;64927;48.214;16.378;2023-12-22T09:17:26;8.40;58.60
76168;DHT22;64927;48.214;16.378;2023-12-22T09:19:52;8.50;58.00
76168;DHT22;64927;48.214;16.378;2023-12-22T09:22:20;8.50;57.80
76168;DHT22;64927;48.214;16.378;2023-12-22T09:24:47;8.60;57.00
76168;DHT22;64927;48.214;16.378;2023-12-22T09:27:14;8.60;56.70
76168;DHT22;64927;48.214;16.378;2023-12-22T09:29:40;8.60;56.90
76168;DHT22;64927;48.214;16.378;2023-12-22T09:32:06;8.70;56.30
76168;DHT22;64927;48.214;16.378;2023-12-22T09:34:32;8.70;56.20
76168;DHT22;64927;48.214;16.378;2023-12-22T09:36:57;8.80;56.00
76168;DHT22;64927;48.214;16.378;2023-12-22T09:39:23;8.90;56.00
76168;DHT22;64927;48.214;16.378;2023-12-22T09:41:49;8.90;55.10
76168;DHT22;64927;48.214;16.378;2023-12-22T09:44:19;9.00;55.70
76168;DHT22;64927;48.214;16.378;2023-12-22T09:46:47;9.00;55.00
76168;DHT22;64927;48.214;16.378;2023-12-22T09:49:14;9.00;54.90
76168;DHT22;64927;48.214;16.378;2023-12-22T09:51:41;9.00;54.70
76168;DHT22;64927;48.214;16.378;2023-12-22T09:54:08;9.00;54.30
76168;DHT22;64927;48.214;16.378;2023-12-22T09:56:37;9.20;54.50
76168;DHT22;64927;48.214;16.378;2023-12-22T09:59:10;9.20;55.00
76168;DHT22;64927;48.214;16.378;2023-12-22T10:01:44;9.10;54.30
76168;DHT22;64927;48.214;16.378;2023-12-22T10:04:14;9.30;54.40
76168;DHT22;64927;48.214;16.378;2023-12-22T10:06:44;9.20;53.90
76168;DHT22;64927;48.214;16.378;2023-12-22T10:09:15;9.20;53.80
76168;DHT22;64927;48.214;16.378;2023-12-22T10:11:44;9.00;54.80
76168;DHT22;64927;48.214;16.378;2023-12-22T10:14:10;9.10;55.20
76168;DHT22;64927;48.214;16.378;2023-12-22T10:16:39;9.10;55.70
76168;DHT22;64927;48.214;16.378;2023-12-22T10:19:05;9.00;56.20
76168;DHT22;64927;48.214;16.378;2023-12-22T10:21:32;8.90;56.20
76168;DHT22;64927;48.214;16.378;2023-12-22T10:23:59;9.10;56.10
76168;DHT22;64927;48.214;16.378;2023-12-22T10:26:28;9.10;56.10
76168;DHT22;64927;48.214;16.378;2023-12-22T10:28:54;9.10;56.20
76168;DHT22;64927;48.214;16.378;2023-12-22T10:31:19;9.10;55.70
76168;DHT22;64927;48.214;16.378;2023-12-22T10:33:45;9.10;55.90
76168;DHT22;64927;48.214;16.378;2023-12-22T10:36:13;9.20;55.10
76168;DHT22;64927;48.214;16.378;2023-12-22T10:38:39;9.10;55.30
76168;DHT22;64927;48.214;16.378;2023-12-22T10:41:08;9.10;54.90
76168;DHT22;64927;48.214;16.378;2023-12-22T10:43:38;9.20;55.30
76168;DHT22;64927;48.214;16.378;2023-12-22T10:46:04;9.50;54.60
76168;DHT22;64927;48.214;16.378;2023-12-22T10:48:31;9.60;54.40
76168;DHT22;64927;48.214;16.378;2023-12-22T10:50:56;9.70;53.90
76168;DHT22;64927;48.214;16.378;2023-12-22T10:53:25;9.60;53.10
76168;DHT22;64927;48.214;16.378;2023-12-22T10:55:51;9.60;53.40
76168;DHT22;64927;48.214;16.378;2023-12-22T10:58:19;9.60;53.20
76168;DHT22;64927;48.214;16.378;2023-12-22T11:00:45;9.80;53.10
76168;DHT22;64927;48.214;16.378;2023-12-22T11:03:19;9.80;52.80
76168;DHT22;64927;48.214;16.378;2023-12-22T11:05:51;9.80;52.20
76168;DHT22;64927;48.214;16.378;2023-12-22T11:08:18;9.70;51.10
76168;DHT22;64927;48.214;16.378;2023-12-22T11:10:51;9.60;51.70
76168;DHT22;64927;48.214;16.378;2023-12-22T11:13:22;9.60;52.30
76168;DHT22;64927;48.214;16.378;2023-12-22T11:15:51;9.80;51.50
76168;DHT22;64927;48.214;16.378;2023-12-22T11:18:18;9.80;51.30
76168;DHT22;64927;48.214;16.378;2023-12-22T11:20:45;9.80;51.40
76168;DHT22;64927;48.214;16.378;2023-12-22T11:23:14;9.60;52.00
76168;DHT22;64927;48.214;16.378;2023-12-22T11:25:41;9.60;52.10
76168;DHT22;64927;48.214;16.378;2023-12-22T11:28:12;9.60;52.10
76168;DHT22;64927;48.214;16.378;2023-12-22T11:30:39;9.60;52.40
76168;DHT22;64927;48.214;16.378;2023-12-22T11:33:05;9.50;52.20
76168;DHT22;64927;48.214;16.378;2023-12-22T11:35:34;9.50;52.90
76168;DHT22;64927;48.214;16.378;2023-12-22T11:38:01;9.40;53.40
76168;DHT22;64927;48.214;16.378;2023-12-22T11:40:28;9.30;53.80
76168;DHT22;64927;48.214;16.378;2023-12-22T11:42:54;9.30;53.40
76168;DHT22;64927;48.214;16.378;2023-12-22T11:45:20;9.30;52.80
76168;DHT22;64927;48.214;16.378;2023-12-22T11:47:48;9.30;52.70
76168;DHT22;64927;48.214;16.378;2023-12-22T11:50:28;9.40;53.20
76168;DHT22;64927;48.214;16.378;2023-12-22T11:52:55;9.40;52.50
76168;DHT22;64927;48.214;16.378;2023-12-22T11:58:35;9.40;49.90
76168;DHT22;64927;48.214;16.378;2023-12-22T12:01:13;9.30;50.20
76168;DHT22;64927;48.214;16.378;2023-12-22T12:08:52;9.30;51.80
76168;DHT22;64927;48.214;16.378;2023-12-22T12:11:22;9.50;51.50
76168;DHT22;64927;48.214;16.378;2023-12-22T12:13:48;9.50;51.80
76168;DHT22;64927;48.214;16.378;2023-12-22T12:16:16;9.60;52.40
76168;DHT22;64927;48.214;16.378;2023-12-22T12:18:46;9.70;52.00
76168;DHT22;64927;48.214;16.378;2023-12-22T12:21:12;9.80;51.60
76168;DHT22;64927;48.214;16.378;2023-12-22T12:23:41;9.70;51.60
76168;DHT22;64927;48.214;16.378;2023-12-22T12:26:07;9.50;51.20
76168;DHT22;64927;48.214;16.378;2023-12-22T12:28:36;9.50;51.00
76168;DHT22;64927;48.214;16.378;2023-12-22T12:31:05;9.40;51.30
76168;DHT22;64927;48.214;16.378;2023-12-22T12:33:32;9.50;51.20
76168;DHT22;64927;48.214;16.378;2023-12-22T12:36:02;9.50;50.50
76168;DHT22;64927;48.214;16.378;2023-12-22T12:41:18;9.50;50.10
76168;DHT22;64927;48.214;16.378;2023-12-22T12:43:50;9.60;49.90
76168;DHT22;64927;48.214;16.378;2023-12-22T12:46:17;9.60;48.20
76168;DHT22;64927;48.214;16.378;2023-12-22T12:48:42;9.60;46.70
76168;DHT22;64927;48.214;16.378;2023-12-22T12:51:12;9.70;46.30
76168;DHT22;64927;48.214;16.378;2023-12-22T12:53:41;9.70;46.20
76168;DHT22;64927;48.214;16.378;2023-12-22T12:56:06;9.80;45.00
76168;DHT22;64927;48.214;16.378;2023-12-22T12:58:32;9.90;44.20
76168;DHT22;64927;48.214;16.378;2023-12-22T13:01:08;9.90;44.00
76168;DHT22;64927;48.214;16.378;2023-12-22T13:03:55;10.00;43.60
76168;DHT22;64927;48.214;16.378;2023-12-22T13:06:21;10.00;43.90
76168;DHT22;64927;48.214;16.378;2023-12-22T13:08:50;10.10;43.70
76168;DHT22;64927;48.214;16.378;2023-12-22T13:11:20;10.00;44.10
76168;DHT22;64927;48.214;16.378;2023-12-22T13:13:49;9.90;46.00
76168;DHT22;64927;48.214;16.378;2023-12-22T13:16:19;9.90;47.50
76168;DHT22;64927;48.214;16.378;2023-12-22T13:18:46;9.80;47.40
76168;DHT22;64927;48.214;16.378;2023-12-22T13:21:12;9.80;46.30
76168;DHT22;64927;48.214;16.378;2023-12-22T13:23:39;9.70;45.90
76168;DHT22;64927;48.214;16.378;2023-12-22T13:26:04;9.70;47.00
76168;DHT22;64927;48.214;16.378;2023-12-22T13:28:32;9.60;47.50
76168;DHT22;64927;48.214;16.378;2023-12-22T13:30:58;9.60;46.90
76168;DHT22;64927;48.214;16.378;2023-12-22T13:33:24;9.70;45.80
76168;DHT22;64927;48.214;16.378;2023-12-22T13:35:57;9.70;43.40
76168;DHT22;64927;48.214;16.378;2023-12-22T13:38:23;9.80;41.40
76168;DHT22;64927;48.214;16.378;2023-12-22T13:40:49;9.90;41.10
76168;DHT22;64927;48.214;16.378;2023-12-22T13:43:15;9.90;38.90
76168;DHT22;64927;48.214;16.378;2023-12-22T13:45:40;9.90;38.30
76168;DHT22;64927;48.214;16.378;2023-12-22T13:48:07;10.00;38.30
76168;DHT22;64927;48.214;16.378;2023-12-22T13:50:32;10.00;37.60
76168;DHT22;64927;48.214;16.378;2023-12-22T13:53:11;10.00;37.40
76168;DHT22;64927;48.214;16.378;2023-12-22T13:55:39;9.90;37.60
76168;DHT22;64927;48.214;16.378;2023-12-22T13:58:04;10.00;37.50
76168;DHT22;64927;48.214;16.378;2023-12-22T14:00:30;10.00;37.40
76168;DHT22;64927;48.214;16.378;2023-12-22T14:03:01;10.00;37.70
76168;DHT22;64927;48.214;16.378;2023-12-22T14:05:26;10.00;37.70
76168;DHT22;64927;48.214;16.378;2023-12-22T14:07:54;10.00;37.40
76168;DHT22;64927;48.214;16.378;2023-12-22T14:10:19;10.00;36.40
76168;DHT22;64927;48.214;16.378;2023-12-22T14:12:47;10.00;36.70
76168;DHT22;64927;48.214;16.378;2023-12-22T14:15:15;10.00;36.60
76168;DHT22;64927;48.214;16.378;2023-12-22T14:17:41;9.90;36.40
76168;DHT22;64927;48.214;16.378;2023-12-22T14:20:09;9.90;37.00
76168;DHT22;64927;48.214;16.378;2023-12-22T14:22:36;9.90;36.90
76168;DHT22;64927;48.214;16.378;2023-12-22T14:25:03;9.90;37.30
76168;DHT22;64927;48.214;16.378;2023-12-22T14:27:28;9.90;37.30
76168;DHT22;64927;48.214;16.378;2023-12-22T14:29:54;9.90;37.30
76168;DHT22;64927;48.214;16.378;2023-12-22T14:32:20;9.80;37.60
76168;DHT22;64927;48.214;16.378;2023-12-22T14:34:48;9.80;38.10
76168;DHT22;64927;48.214;16.378;2023-12-22T14:37:14;9.60;38.60
76168;DHT22;64927;48.214;16.378;2023-12-22T14:39:42;9.50;39.90
76168;DHT22;64927;48.214;16.378;2023-12-22T14:42:10;9.40;40.60
76168;DHT22;64927;48.214;16.378;2023-12-22T14:44:36;9.40;41.40
76168;DHT22;64927;48.214;16.378;2023-12-22T14:47:01;9.30;42.10
76168;DHT22;64927;48.214;16.378;2023-12-22T14:49:27;9.30;43.20
76168;DHT22;64927;48.214;16.378;2023-12-22T14:51:52;9.20;43.80
76168;DHT22;64927;48.214;16.378;2023-12-22T14:54:19;9.20;44.70
76168;DHT22;64927;48.214;16.378;2023-12-22T14:56:50;9.10;45.30
76168;DHT22;64927;48.214;16.378;2023-12-22T14:59:16;9.10;46.90
76168;DHT22;64927;48.214;16.378;2023-12-22T15:01:44;8.70;50.30
76168;DHT22;64927;48.214;16.378;2023-12-22T15:04:10;8.50;52.10
76168;DHT22;64927;48.214;16.378;2023-12-22T15:06:39;8.40;53.00
76168;DHT22;64927;48.214;16.378;2023-12-22T15:09:06;8.20;55.70
76168;DHT22;64927;48.214;16.378;2023-12-22T15:11:31;8.00;57.30
76168;DHT22;64927;48.214;16.378;2023-12-22T15:13:59;7.80;59.00
76168;DHT22;64927;48.214;16.378;2023-12-22T15:16:25;7.70;59.70
76168;DHT22;64927;48.214;16.378;2023-12-22T15:18:51;7.60;60.70
76168;DHT22;64927;48.214;16.378;2023-12-22T15:21:23;7.60;62.10
76168;DHT22;64927;48.214;16.378;2023-12-22T15:23:50;7.60;61.50
76168;DHT22;64927;48.214;16.378;2023-12-22T15:26:25;7.60;61.70
76168;DHT22;64927;48.214;16.378;2023-12-22T15:28:53;7.60;61.80
76168;DHT22;64927;48.214;16.378;2023-12-22T15:31:19;7.60;62.00
76168;DHT22;64927;48.214;16.378;2023-12-22T15:33:44;7.60;62.00
76168;DHT22;64927;48.214;16.378;2023-12-22T15:36:10;7.60;61.60
76168;DHT22;64927;48.214;16.378;2023-12-22T15:38:41;7.60;62.10
76168;DHT22;64927;48.214;16.378;2023-12-22T15:41:07;7.60;61.50
76168;DHT22;64927;48.214;16.378;2023-12-22T15:43:38;7.60;61.60